Time;durP1;ratioP1;P1;durP2;ratioP2;P2;SDS_P1;SDS_P2;PMS_P1;PMS_P2;Temp;Humidity;BMP_temperature;BMP_pressure;BME280_temperature;BME280_humidity;BME280_pressure;Samples;Min_cycle;Max_cycle;Signal;HPM_P1;HPM_P2
2023/06/24 00:01:19;;;;;;;4.28;3.88;;;18.70;99.90;;;;;;4837927;29;20045;-69
2023/06/24 00:03:46;;;;;;;3.25;2.95;;;18.70;99.90;;;;;;4838611;29;20048;-69
2023/06/24 00:06:18;;;;;;;3.60;3.28;;;18.70;99.90;;;;;;4839475;29;20052;-69
2023/06/24 00:08:48;;;;;;;5.22;4.72;;;18.70;99.90;;;;;;4833784;29;21669;-69
2023/06/24 00:11:15;;;;;;;4.65;4.22;;;18.80;99.90;;;;;;4836297;29;20030;-69
2023/06/24 00:13:43;;;;;;;4.28;3.92;;;18.80;99.90;;;;;;4840584;29;20037;-69
2023/06/24 00:16:10;;;;;;;3.30;3.00;;;18.80;99.90;;;;;;4850203;29;20056;-68
2023/06/24 00:18:37;;;;;;;3.63;3.33;;;18.80;99.90;;;;;;4844065;29;20048;-68
2023/06/24 00:21:04;;;;;;;4.20;3.80;;;18.80;99.90;;;;;;4839165;29;20037;-69
2023/06/24 00:23:34;;;;;;;4.20;3.45;;;18.70;99.90;;;;;;4836150;29;20037;-68
2023/06/24 00:26:01;;;;;;;4.15;3.20;;;18.70;99.90;;;;;;4833388;29;20424;-69
2023/06/24 00:28:27;;;;;;;4.32;3.92;;;18.70;99.90;;;;;;4812878;29;20045;-68
2023/06/24 00:30:54;;;;;;;4.13;3.72;;;18.70;99.90;;;;;;4828321;29;20648;-69
2023/06/24 00:33:20;;;;;;;4.47;4.07;;;18.70;99.90;;;;;;4822831;29;20382;-70
2023/06/24 00:35:47;;;;;;;3.83;3.25;;;18.70;99.90;;;;;;4844677;29;20029;-68
2023/06/24 00:38:15;;;;;;;3.50;3.22;;;18.70;99.90;;;;;;4839172;29;20041;-68
2023/06/24 00:40:41;;;;;;;3.60;3.30;;;18.70;99.90;;;;;;4825339;29;20040;-69
2023/06/24 00:43:09;;;;;;;6.43;5.82;;;18.70;99.90;;;;;;4832223;29;20047;-69
2023/06/24 00:45:35;;;;;;;5.28;4.78;;;18.80;99.90;;;;;;4831618;29;20037;-68
2023/06/24 00:48:03;;;;;;;4.40;3.65;;;18.80;99.90;;;;;;4833438;29;20063;-69
2023/06/24 00:50:29;;;;;;;4.30;3.53;;;18.80;99.90;;;;;;4840321;29;20115;-69
2023/06/24 00:52:55;;;;;;;4.88;4.28;;;18.90;99.90;;;;;;4844462;29;20025;-66
2023/06/24 00:55:22;;;;;;;3.67;3.38;;;18.90;99.90;;;;;;4842202;29;20061;-69
2023/06/24 00:57:53;;;;;;;4.57;4.03;;;18.90;99.90;;;;;;4811379;29;20527;-68
2023/06/24 01:00:21;;;;;;;4.07;3.67;;;19.00;99.90;;;;;;4823340;29;20040;-69
2023/06/24 01:02:48;;;;;;;4.85;3.22;;;19.00;99.90;;;;;;4832640;29;20703;-68
2023/06/24 01:05:15;;;;;;;4.25;3.88;;;19.10;99.90;;;;;;4829928;29;20485;-68
2023/06/24 01:07:43;;;;;;;4.97;4.38;;;19.10;99.90;;;;;;4832680;29;20056;-69
2023/06/24 01:10:11;;;;;;;4.97;4.57;;;19.10;99.90;;;;;;4825920;29;20045;-68
2023/06/24 01:12:40;;;;;;;4.15;3.60;;;19.20;99.90;;;;;;4843773;29;20037;-69
2023/06/24 01:15:09;;;;;;;4.43;4.03;;;19.10;99.90;;;;;;4842735;29;20045;-68
2023/06/24 01:17:48;;;;;;;4.15;3.75;;;19.10;99.90;;;;;;4819502;29;20036;-70
2023/06/24 01:20:27;;;;;;;4.47;4.00;;;19.10;99.90;;;;;;4807395;29;20044;-69
2023/06/24 01:23:14;;;;;;;4.07;3.22;;;19.00;99.90;;;;;;4830350;29;20044;-69
2023/06/24 01:26:31;;;;;;;3.80;3.08;;;18.90;99.90;;;;;;4829032;29;20041;-69
2023/06/24 01:29:00;;;;;;;4.05;2.80;;;18.90;99.90;;;;;;4774568;29;21291;-69
2023/06/24 01:31:41;;;;;;;3.42;3.05;;;18.80;99.90;;;;;;4836541;29;20634;-68
2023/06/24 01:34:14;;;;;;;3.60;3.13;;;18.70;99.90;;;;;;4844586;29;20378;-69
2023/06/24 01:36:47;;;;;;;3.47;3.17;;;18.70;99.90;;;;;;4838060;29;20045;-68
2023/06/24 01:39:15;;;;;;;3.40;3.10;;;18.60;99.90;;;;;;4832286;29;20037;-69
2023/06/24 01:42:00;;;;;;;4.05;3.72;;;18.60;99.90;;;;;;4820812;29;20048;-69
2023/06/24 01:44:29;;;;;;;4.57;3.72;;;18.50;99.90;;;;;;4820126;29;20040;-69
2023/06/24 01:46:58;;;;;;;3.88;3.33;;;18.40;99.90;;;;;;4805493;29;20222;-68
2023/06/24 01:49:28;;;;;;;3.47;3.17;;;18.40;99.90;;;;;;4825489;29;21414;-69
2023/06/24 01:51:58;;;;;;;3.80;3.50;;;18.40;99.90;;;;;;4847566;29;20381;-68
2023/06/24 01:54:28;;;;;;;4.53;3.65;;;18.40;99.90;;;;;;4807433;29;20037;-68
2023/06/24 01:56:57;;;;;;;4.30;3.90;;;18.40;99.90;;;;;;4836285;29;20057;-69
2023/06/24 01:59:26;;;;;;;5.20;4.40;;;18.40;99.90;;;;;;4831364;29;20049;-68
2023/06/24 02:01:55;;;;;;;4.93;4.45;;;18.40;99.90;;;;;;4819921;29;20052;-69
2023/06/24 02:04:22;;;;;;;5.80;4.85;;;18.40;99.90;;;;;;4840238;29;20496;-69
2023/06/24 02:06:51;;;;;;;5.75;5.05;;;18.30;99.90;;;;;;4821979;29;20048;-68
2023/06/24 02:09:19;;;;;;;6.93;5.28;;;18.30;99.90;;;;;;4837673;29;20037;-69
2023/06/24 02:11:46;;;;;;;5.55;4.60;;;18.20;99.90;;;;;;4841902;29;20048;-69
2023/06/24 02:14:15;;;;;;;5.53;4.85;;;18.20;99.90;;;;;;4835130;29;20052;-69
2023/06/24 02:16:43;;;;;;;7.38;5.38;;;18.20;99.90;;;;;;4835596;29;20041;-69
2023/06/24 02:19:11;;;;;;;5.82;5.28;;;18.20;99.90;;;;;;4820481;29;20811;-69
2023/06/24 02:21:40;;;;;;;5.78;5.28;;;18.20;99.90;;;;;;4818446;29;20393;-69
2023/06/24 02:24:06;;;;;;;6.25;5.65;;;18.10;99.90;;;;;;4837252;29;20037;-69
2023/06/24 02:26:34;;;;;;;7.45;6.40;;;18.10;99.90;;;;;;4830910;29;20047;-66
2023/06/24 02:29:01;;;;;;;5.68;5.18;;;18.10;99.90;;;;;;4843161;29;20049;-69
2023/06/24 02:31:27;;;;;;;6.43;5.72;;;18.00;99.90;;;;;;4840635;29;20040;-69
2023/06/24 02:33:54;;;;;;;7.22;6.53;;;18.00;99.90;;;;;;4834375;29;20040;-69
2023/06/24 02:36:20;;;;;;;6.93;6.22;;;18.00;99.90;;;;;;4838134;29;21038;-69
2023/06/24 02:38:46;;;;;;;7.10;5.93;;;17.90;99.90;;;;;;4831504;29;20527;-69
2023/06/24 02:41:13;;;;;;;8.10;6.57;;;17.90;99.90;;;;;;4832681;29;20037;-69
2023/06/24 02:43:39;;;;;;;6.75;6.15;;;17.90;99.90;;;;;;4821203;29;20033;-69
2023/06/24 02:46:07;;;;;;;6.97;6.20;;;17.90;99.90;;;;;;4845793;29;20378;-69
2023/06/24 02:48:36;;;;;;;7.00;6.35;;;17.80;99.90;;;;;;4826935;29;20045;-67
2023/06/24 02:51:04;;;;;;;6.93;5.13;;;17.80;99.90;;;;;;4838294;29;20033;-69
2023/06/24 02:53:31;;;;;;;6.97;6.13;;;17.80;99.90;;;;;;4825828;29;20041;-69
2023/06/24 02:55:58;;;;;;;7.60;6.80;;;17.70;99.90;;;;;;4832990;29;20065;-69
2023/06/24 02:58:31;;;;;;;6.53;5.93;;;17.70;99.90;;;;;;4833808;29;20044;-69
2023/06/24 03:01:11;;;;;;;6.22;5.60;;;17.60;99.90;;;;;;4833187;29;20084;-69
2023/06/24 03:03:49;;;;;;;6.18;5.57;;;17.60;99.90;;;;;;4841161;29;20067;-69
2023/06/24 03:06:17;;;;;;;5.70;5.10;;;17.50;99.90;;;;;;4845290;29;20424;-69
2023/06/24 03:08:45;;;;;;;5.88;5.38;;;17.50;99.90;;;;;;4836737;29;20512;-69
2023/06/24 03:11:15;;;;;;;6.80;6.20;;;17.50;99.90;;;;;;4817669;29;20468;-66
2023/06/24 03:13:43;;;;;;;7.07;6.47;;;17.50;99.90;;;;;;4819464;29;20044;-67
2023/06/24 03:16:16;;;;;;;7.70;6.88;;;17.40;99.90;;;;;;4835973;29;20045;-67
2023/06/24 03:18:52;;;;;;;7.10;6.15;;;17.40;99.90;;;;;;4813667;29;20041;-66
2023/06/24 03:21:19;;;;;;;6.05;5.45;;;17.40;99.90;;;;;;4833098;29;20033;-67
2023/06/24 03:23:46;;;;;;;4.53;4.13;;;17.30;99.90;;;;;;4830985;29;20044;-67
2023/06/24 03:26:14;;;;;;;4.93;4.43;;;17.30;99.90;;;;;;4829761;29;20618;-66
2023/06/24 03:28:42;;;;;;;4.90;4.40;;;17.30;99.90;;;;;;4832689;29;20041;-70
2023/06/24 03:31:17;;;;;;;5.13;4.65;;;17.30;99.90;;;;;;4819882;29;20041;-68
2023/06/24 03:33:45;;;;;;;5.35;4.90;;;17.30;99.90;;;;;;4819920;29;20040;-69
2023/06/24 03:36:12;;;;;;;5.88;5.00;;;17.20;99.90;;;;;;4818903;29;22194;-69
2023/06/24 03:38:40;;;;;;;5.93;5.32;;;17.20;99.90;;;;;;4847756;29;20045;-67
2023/06/24 03:41:07;;;;;;;6.00;5.47;;;17.20;99.90;;;;;;4837772;29;20045;-66
2023/06/24 03:43:33;;;;;;;6.53;6.03;;;17.20;99.90;;;;;;4830931;29;20056;-66
2023/06/24 03:46:00;;;;;;;4.97;4.53;;;17.20;99.90;;;;;;4838643;29;20040;-66
2023/06/24 03:48:27;;;;;;;7.68;6.57;;;17.20;99.90;;;;;;4828585;29;20033;-67
2023/06/24 03:50:53;;;;;;;7.60;6.75;;;17.20;99.90;;;;;;4813621;29;20033;-66
2023/06/24 03:53:21;;;;;;;8.10;6.68;;;17.30;99.90;;;;;;4833661;29;20809;-67
2023/06/24 03:55:47;;;;;;;7.45;6.47;;;17.30;99.90;;;;;;4818106;29;20493;-67
2023/06/24 03:58:16;;;;;;;6.72;5.82;;;17.30;99.90;;;;;;4819414;29;20033;-66
2023/06/24 04:00:44;;;;;;;6.95;6.35;;;17.30;99.90;;;;;;4836412;29;20033;-66
2023/06/24 04:03:10;;;;;;;7.85;6.88;;;17.30;99.90;;;;;;4843176;29;20037;-68
2023/06/24 04:05:39;;;;;;;7.93;7.10;;;17.30;99.90;;;;;;4817748;29;20033;-67
2023/06/24 04:08:07;;;;;;;6.60;5.95;;;17.30;99.90;;;;;;4831719;29;20041;-68
2023/06/24 04:10:34;;;;;;;5.45;4.95;;;17.30;99.90;;;;;;4825445;29;20052;-67
2023/06/24 04:13:00;;;;;;;5.85;5.22;;;17.30;99.90;;;;;;4831857;29;20389;-67
2023/06/24 04:15:26;;;;;;;6.22;5.63;;;17.40;99.90;;;;;;4820221;29;20056;-67
2023/06/24 04:17:54;;;;;;;6.03;5.43;;;17.40;99.90;;;;;;4811911;29;20044;-67
2023/06/24 04:20:20;;;;;;;7.90;6.63;;;17.50;99.90;;;;;;4804251;29;20041;-68
2023/06/24 04:22:47;;;;;;;6.57;5.88;;;17.50;99.90;;;;;;4841124;29;20036;-68
2023/06/24 04:25:13;;;;;;;7.03;6.43;;;17.60;99.90;;;;;;4836981;29;20087;-68
2023/06/24 04:27:39;;;;;;;7.38;6.28;;;17.60;99.90;;;;;;4822531;29;20041;-71
2023/06/24 04:30:08;;;;;;;8.07;6.57;;;17.70;99.90;;;;;;4815994;29;20048;-71
2023/06/24 04:32:35;;;;;;;8.10;7.30;;;17.80;99.90;;;;;;4838111;29;20461;-68
2023/06/24 04:35:01;;;;;;;7.45;6.55;;;17.90;99.90;;;;;;4840990;29;20745;-72
2023/06/24 04:37:28;;;;;;;7.35;6.65;;;18.00;99.90;;;;;;4832519;29;20491;-70
2023/06/24 04:39:56;;;;;;;7.85;6.28;;;18.10;99.90;;;;;;4839047;29;20525;-73
2023/06/24 04:42:23;;;;;;;6.65;5.93;;;18.20;99.90;;;;;;4822426;29;20510;-71
2023/06/24 04:44:50;;;;;;;10.85;9.85;;;18.30;99.90;;;;;;4839243;29;20033;-72
2023/06/24 04:47:20;;;;;;;11.40;10.30;;;18.40;99.90;;;;;;4820128;29;20033;-67
2023/06/24 04:49:46;;;;;;;10.93;9.55;;;18.50;99.90;;;;;;4814999;29;20053;-67
2023/06/24 04:52:13;;;;;;;7.90;7.13;;;18.60;99.90;;;;;;4832853;29;20051;-67
2023/06/24 04:54:39;;;;;;;8.05;7.03;;;18.70;99.90;;;;;;4845992;29;20037;-67
2023/06/24 04:57:09;;;;;;;6.88;6.20;;;18.90;99.90;;;;;;4845809;29;20044;-67
2023/06/24 04:59:38;;;;;;;7.00;5.95;;;19.00;99.90;;;;;;4828993;29;20041;-67
2023/06/24 05:02:04;;;;;;;7.07;6.47;;;19.10;99.90;;;;;;4835893;29;20619;-67
2023/06/24 05:04:30;;;;;;;7.00;6.20;;;19.20;99.90;;;;;;4817147;29;20049;-67
2023/06/24 05:06:56;;;;;;;7.10;6.35;;;19.40;99.90;;;;;;4833248;29;20034;-67
2023/06/24 05:09:23;;;;;;;7.30;6.70;;;19.40;99.90;;;;;;4826608;29;20041;-67
2023/06/24 05:11:49;;;;;;;6.63;6.03;;;19.60;99.90;;;;;;4837020;29;20048;-67
2023/06/24 05:14:15;;;;;;;6.70;6.10;;;19.70;99.90;;;;;;4826280;29;20052;-67
2023/06/24 05:16:42;;;;;;;6.40;5.90;;;19.90;99.90;;;;;;4842674;29;20235;-67
2023/06/24 05:19:08;;;;;;;7.50;6.55;;;20.00;99.90;;;;;;4828958;29;20037;-67
2023/06/24 05:21:34;;;;;;;6.93;6.22;;;20.10;99.90;;;;;;4835481;29;20037;-67
2023/06/24 05:24:01;;;;;;;6.47;5.80;;;20.30;99.90;;;;;;4836006;29;20029;-67
2023/06/24 05:26:28;;;;;;;6.32;5.47;;;20.40;99.90;;;;;;4837011;29;20033;-67
2023/06/24 05:28:54;;;;;;;6.47;5.75;;;20.50;99.90;;;;;;4832094;29;20056;-67
2023/06/24 05:31:20;;;;;;;7.22;6.50;;;20.60;99.90;;;;;;4841513;29;20048;-68
2023/06/24 05:33:47;;;;;;;7.05;6.30;;;20.80;99.90;;;;;;4846626;29;20033;-68
2023/06/24 05:36:13;;;;;;;5.43;4.93;;;20.90;99.90;;;;;;4837560;29;20033;-67
2023/06/24 05:38:39;;;;;;;5.25;4.78;;;21.00;99.90;;;;;;4829193;29;20041;-67
2023/06/24 05:41:06;;;;;;;5.53;5.00;;;21.20;99.90;;;;;;4831057;29;20563;-67
2023/06/24 05:43:32;;;;;;;5.68;4.75;;;21.40;99.90;;;;;;4835834;29;20041;-67
2023/06/24 05:45:58;;;;;;;4.57;4.18;;;21.50;99.90;;;;;;4838290;29;20033;-67
2023/06/24 05:48:25;;;;;;;3.53;3.15;;;21.60;99.90;;;;;;4834462;29;20037;-67
2023/06/24 05:50:51;;;;;;;5.18;3.33;;;21.80;99.90;;;;;;4842447;29;20040;-68
2023/06/24 05:53:17;;;;;;;4.00;3.63;;;21.90;99.90;;;;;;4847595;29;20389;-69
2023/06/24 05:55:44;;;;;;;3.90;3.20;;;22.00;99.90;;;;;;4838803;29;20065;-67
2023/06/24 05:58:10;;;;;;;3.28;2.97;;;22.10;99.90;;;;;;4836806;29;20034;-67
2023/06/24 06:00:37;;;;;;;3.05;2.53;;;22.30;99.90;;;;;;4809509;29;20052;-67
2023/06/24 06:03:03;;;;;;;3.90;2.50;;;22.60;99.90;;;;;;4830363;29;20045;-67
2023/06/24 06:05:29;;;;;;;3.35;2.20;;;22.90;99.90;;;;;;4820046;29;20057;-68
2023/06/24 06:07:55;;;;;;;4.32;2.78;;;23.30;99.90;;;;;;4843403;29;20092;-67
2023/06/24 06:10:22;;;;;;;4.40;2.60;;;23.50;99.90;;;;;;4840498;29;20036;-67
2023/06/24 06:12:49;;;;;;;3.58;3.28;;;23.60;99.90;;;;;;4825502;29;20032;-67
2023/06/24 06:15:15;;;;;;;5.18;3.00;;;23.70;99.90;;;;;;4833990;29;20049;-67
2023/06/24 06:17:41;;;;;;;2.90;2.08;;;23.70;99.90;;;;;;4835055;29;20361;-67
2023/06/24 06:20:08;;;;;;;3.05;2.38;;;23.90;99.90;;;;;;4823766;29;20056;-68
2023/06/24 06:22:37;;;;;;;6.45;5.10;;;24.00;99.90;;;;;;4832018;29;20040;-68
2023/06/24 06:25:07;;;;;;;4.45;3.92;;;24.20;99.90;;;;;;4838705;29;20490;-68
2023/06/24 06:27:33;;;;;;;10.10;9.18;;;24.50;99.90;;;;;;4842207;29;20037;-67
2023/06/24 06:30:00;;;;;;;8.07;7.28;;;24.80;99.90;;;;;;4833826;29;20032;-68
2023/06/24 06:32:26;;;;;;;12.65;11.52;;;25.10;99.90;;;;;;4835512;29;20033;-67
2023/06/24 06:34:52;;;;;;;21.08;19.15;;;25.30;99.90;;;;;;4834625;29;20037;-68
2023/06/24 06:37:19;;;;;;;11.20;10.10;;;25.40;99.90;;;;;;4833640;29;20052;-67
2023/06/24 06:39:45;;;;;;;7.28;6.55;;;25.40;99.90;;;;;;4825923;29;20048;-67
2023/06/24 06:42:11;;;;;;;7.45;5.70;;;25.40;99.90;;;;;;4836453;29;20048;-68
2023/06/24 06:44:38;;;;;;;6.10;5.47;;;25.30;99.90;;;;;;4842522;29;20052;-68
2023/06/24 06:47:05;;;;;;;6.10;5.13;;;25.20;99.90;;;;;;4842503;29;20045;-67
2023/06/24 06:49:31;;;;;;;7.28;6.22;;;25.20;99.90;;;;;;4822736;29;20040;-67
2023/06/24 06:51:57;;;;;;;13.82;12.07;;;25.10;99.90;;;;;;4830204;29;20041;-67
2023/06/24 06:54:24;;;;;;;17.50;12.45;;;25.20;99.90;;;;;;4831623;29;21845;-67
2023/06/24 06:56:50;;;;;;;7.50;6.70;;;25.20;99.90;;;;;;4829535;29;20061;-67
2023/06/24 06:59:17;;;;;;;5.60;4.68;;;25.30;99.90;;;;;;4812155;29;20485;-67
2023/06/24 07:01:43;;;;;;;5.15;3.63;;;25.40;99.90;;;;;;4838695;29;20036;-68
2023/06/24 07:04:10;;;;;;;4.85;4.25;;;25.40;99.90;;;;;;4844396;29;20025;-67
2023/06/24 07:06:36;;;;;;;5.40;4.65;;;25.40;99.90;;;;;;4837208;29;20041;-67
2023/06/24 07:09:02;;;;;;;4.97;4.13;;;25.50;99.90;;;;;;4827310;29;20040;-66
2023/06/24 07:11:29;;;;;;;5.20;4.57;;;25.60;99.90;;;;;;4813647;29;20033;-67
2023/06/24 07:13:55;;;;;;;4.03;3.13;;;25.70;99.90;;;;;;4832638;29;20036;-67
2023/06/24 07:16:21;;;;;;;3.78;2.90;;;25.70;99.90;;;;;;4816299;29;20072;-66
2023/06/24 07:18:48;;;;;;;5.57;4.70;;;25.80;99.90;;;;;;4825590;29;20049;-68
2023/06/24 07:21:14;;;;;;;4.60;3.20;;;25.90;99.90;;;;;;4836577;29;20029;-68
2023/06/24 07:23:41;;;;;;;4.95;3.35;;;25.90;99.90;;;;;;4843250;29;20052;-68
2023/06/24 07:26:07;;;;;;;4.47;3.42;;;26.00;99.90;;;;;;4833340;29;20036;-68
2023/06/24 07:28:34;;;;;;;2.83;2.10;;;26.10;99.90;;;;;;4825711;29;20048;-67
2023/06/24 07:31:00;;;;;;;5.18;2.83;;;26.20;99.90;;;;;;4825992;29;20033;-68
2023/06/24 07:33:26;;;;;;;3.55;2.60;;;26.30;99.40;;;;;;4814643;29;20501;-69
2023/06/24 07:35:53;;;;;;;3.67;2.03;;;26.30;98.80;;;;;;4830272;29;20634;-69
2023/06/24 07:38:19;;;;;;;3.80;2.95;;;26.40;98.60;;;;;;4832851;29;20508;-68
2023/06/24 07:40:46;;;;;;;3.65;2.20;;;26.50;98.40;;;;;;4833743;29;20072;-69
2023/06/24 07:43:12;;;;;;;3.10;2.80;;;26.70;98.20;;;;;;4837190;29;20029;-69
2023/06/24 07:45:38;;;;;;;4.30;3.35;;;26.80;97.50;;;;;;4830698;29;20046;-69
2023/06/24 07:48:06;;;;;;;4.85;4.32;;;26.90;97.10;;;;;;4827508;29;20412;-68
2023/06/24 07:50:36;;;;;;;3.78;3.17;;;26.90;96.20;;;;;;4821977;29;20500;-69
2023/06/24 07:53:02;;;;;;;2.35;1.92;;;26.90;96.20;;;;;;4834850;29;20037;-70
2023/06/24 07:55:29;;;;;;;2.95;1.98;;;26.80;95.80;;;;;;4834418;29;20520;-69
2023/06/24 07:57:55;;;;;;;2.63;1.50;;;26.70;95.20;;;;;;4834427;29;20045;-68
2023/06/24 08:00:21;;;;;;;1.98;1.48;;;26.60;95.10;;;;;;4829884;29;20055;-69
2023/06/24 08:02:48;;;;;;;2.35;1.63;;;26.50;95.00;;;;;;4840955;29;20523;-69
2023/06/24 08:05:14;;;;;;;2.00;1.27;;;26.50;94.90;;;;;;4845585;29;20048;-69
2023/06/24 08:07:40;;;;;;;1.98;0.98;;;26.50;94.70;;;;;;4845934;29;20025;-69
2023/06/24 08:10:07;;;;;;;21.08;19.17;;;26.60;94.50;;;;;;4827476;29;20032;-69
2023/06/24 08:12:34;;;;;;;62.78;56.78;;;26.70;94.10;;;;;;4831783;29;21088;-68
2023/06/24 08:15:00;;;;;;;19.67;17.77;;;26.90;94.00;;;;;;4833366;29;20684;-69
2023/06/24 08:17:26;;;;;;;8.60;7.70;;;27.00;93.80;;;;;;4832342;29;20494;-68
2023/06/24 08:19:53;;;;;;;4.45;3.65;;;27.10;93.50;;;;;;4823258;29;20036;-68
2023/06/24 08:22:19;;;;;;;3.65;1.77;;;27.20;92.90;;;;;;4813105;29;20748;-69
2023/06/24 08:24:45;;;;;;;2.50;1.60;;;27.30;92.40;;;;;;4844329;29;20555;-69
2023/06/24 08:27:12;;;;;;;2.67;1.50;;;27.40;91.80;;;;;;4838173;29;20033;-69
2023/06/24 08:29:38;;;;;;;2.22;1.10;;;27.50;91.20;;;;;;4793509;29;20049;-68
2023/06/24 08:32:06;;;;;;;1.85;1.17;;;27.50;91.10;;;;;;4818384;29;20052;-68
2023/06/24 08:34:33;;;;;;;2.00;1.02;;;27.40;90.90;;;;;;4832158;29;20501;-69
2023/06/24 08:37:00;;;;;;;1.98;1.13;;;27.40;90.50;;;;;;4816974;29;20045;-68
2023/06/24 08:39:26;;;;;;;1.65;0.90;;;27.40;90.50;;;;;;4826896;29;20045;-68
2023/06/24 08:41:52;;;;;;;2.08;1.25;;;27.40;90.10;;;;;;4844812;29;20049;-68
2023/06/24 08:44:19;;;;;;;2.55;1.25;;;27.50;89.70;;;;;;4828199;29;21438;-69
2023/06/24 08:46:47;;;;;;;2.15;1.40;;;27.50;89.10;;;;;;4832622;29;20041;-69
2023/06/24 08:49:22;;;;;;;1.85;1.20;;;27.50;88.30;;;;;;4830203;29;20024;-68
2023/06/24 08:51:55;;;;;;;2.95;0.90;;;27.60;87.40;;;;;;4830426;29;20097;-71
2023/06/24 08:54:23;;;;;;;4.28;3.42;;;27.80;87.10;;;;;;4830889;29;20037;-68
2023/06/24 08:56:49;;;;;;;18.05;16.27;;;28.10;87.20;;;;;;4832453;29;20049;-68
2023/06/24 08:59:19;;;;;;;7.45;6.75;;;28.30;86.70;;;;;;4833212;29;20037;-68
2023/06/24 09:01:50;;;;;;;4.68;3.42;;;28.60;85.30;;;;;;4843231;29;20043;-70
2023/06/24 09:04:16;;;;;;;2.23;1.67;;;28.80;84.70;;;;;;4836780;29;20037;-69
2023/06/24 09:06:42;;;;;;;2.20;1.20;;;29.00;83.50;;;;;;4811154;29;20053;-69
2023/06/24 09:09:19;;;;;;;2.55;1.35;;;29.30;82.00;;;;;;4822914;29;20045;-68
2023/06/24 09:11:52;;;;;;;3.15;1.90;;;29.50;81.20;;;;;;4830137;29;20041;-68
2023/06/24 09:14:18;;;;;;;1.92;1.17;;;29.70;80.20;;;;;;4834444;29;20412;-68
2023/06/24 09:16:55;;;;;;;2.85;1.77;;;29.90;79.70;;;;;;4839302;29;20516;-68
2023/06/24 09:19:23;;;;;;;1.85;1.20;;;30.20;78.50;;;;;;4840526;29;20037;-68
2023/06/24 09:21:51;;;;;;;2.72;2.47;;;30.20;77.60;;;;;;4842842;29;20044;-68
2023/06/24 09:24:17;;;;;;;4.57;2.13;;;30.30;76.50;;;;;;4833627;29;20041;-68
2023/06/24 09:26:44;;;;;;;3.10;2.80;;;30.40;76.70;;;;;;4834072;29;20033;-71
2023/06/24 09:29:14;;;;;;;3.42;2.55;;;30.40;74.80;;;;;;4828290;29;20870;-69
2023/06/24 09:31:48;;;;;;;1.65;1.33;;;30.40;74.80;;;;;;4816408;29;20047;-70
2023/06/24 09:34:18;;;;;;;4.38;2.05;;;30.50;75.00;;;;;;4835291;29;20046;-69
2023/06/24 09:36:45;;;;;;;3.35;2.33;;;30.60;74.90;;;;;;4845096;29;20393;-69
2023/06/24 09:39:12;;;;;;;2.70;1.95;;;30.70;74.40;;;;;;4838109;29;20043;-69
2023/06/24 09:41:42;;;;;;;2.88;2.33;;;30.60;73.50;;;;;;4836338;29;20060;-69
2023/06/24 09:44:11;;;;;;;2.90;2.30;;;30.60;73.30;;;;;;4831684;29;20033;-69
2023/06/24 09:46:38;;;;;;;2.63;1.95;;;30.60;74.00;;;;;;4830457;29;20151;-69
2023/06/24 09:49:05;;;;;;;2.33;1.88;;;30.50;74.10;;;;;;4821901;29;20064;-69
2023/06/24 09:51:37;;;;;;;2.70;2.30;;;30.50;74.40;;;;;;4830068;29;21852;-69
2023/06/24 09:54:06;;;;;;;5.70;2.53;;;30.40;74.10;;;;;;4833366;29;20041;-69
2023/06/24 09:56:37;;;;;;;2.65;2.00;;;30.40;73.90;;;;;;4843440;29;20437;-69
2023/06/24 09:59:05;;;;;;;2.20;1.48;;;30.20;73.40;;;;;;4840803;29;20044;-68
2023/06/24 10:01:35;;;;;;;3.50;2.03;;;30.10;73.40;;;;;;4833215;29;20626;-70
2023/06/24 10:04:01;;;;;;;2.45;1.75;;;30.00;72.80;;;;;;4832004;29;20038;-69
2023/06/24 10:06:28;;;;;;;4.25;1.70;;;30.00;73.20;;;;;;4831000;29;20049;-69
2023/06/24 10:08:55;;;;;;;3.05;2.42;;;30.00;73.50;;;;;;4830215;29;20048;-69
2023/06/24 10:11:22;;;;;;;3.78;2.08;;;30.00;72.40;;;;;;4828007;29;20377;-69
2023/06/24 10:13:48;;;;;;;4.13;2.30;;;30.00;72.90;;;;;;4841849;29;20729;-69
2023/06/24 10:16:15;;;;;;;3.53;3.22;;;30.10;72.90;;;;;;4828608;29;20053;-69
2023/06/24 10:18:44;;;;;;;4.38;2.28;;;30.10;72.30;;;;;;4838158;29;20029;-69
2023/06/24 10:21:11;;;;;;;3.38;2.53;;;30.20;72.10;;;;;;4828998;29;20383;-69
2023/06/24 10:23:49;;;;;;;2.28;1.98;;;30.30;71.90;;;;;;4835061;29;20048;-69
2023/06/24 10:26:24;;;;;;;2.50;1.92;;;30.30;71.90;;;;;;4832596;29;20049;-68
2023/06/24 10:29:06;;;;;;;2.03;1.60;;;30.40;71.60;;;;;;4832307;29;20060;-68
2023/06/24 10:31:39;;;;;;;2.40;2.10;;;30.50;72.10;;;;;;4832680;29;20048;-68
2023/06/24 10:34:22;;;;;;;4.28;2.35;;;30.70;71.60;;;;;;4844572;29;20044;-69
2023/06/24 10:37:04;;;;;;;3.03;2.13;;;30.80;70.70;;;;;;4837588;29;20048;-69
2023/06/24 10:39:57;;;;;;;3.05;1.73;;;30.80;70.50;;;;;;4803749;29;20041;-69
2023/06/24 10:42:26;;;;;;;3.03;2.25;;;30.80;70.60;;;;;;4815694;29;20693;-68
2023/06/24 10:45:01;;;;;;;4.03;2.67;;;31.10;70.70;;;;;;4829851;29;20040;-69
2023/06/24 10:47:29;;;;;;;2.58;2.05;;;31.40;70.70;;;;;;4833130;29;20568;-69
2023/06/24 10:49:56;;;;;;;2.70;2.42;;;31.60;69.70;;;;;;4824047;29;20037;-71
2023/06/24 10:52:23;;;;;;;4.18;2.53;;;31.80;69.40;;;;;;4841037;29;20428;-69
2023/06/24 10:54:51;;;;;;;3.85;1.90;;;32.10;68.40;;;;;;4843741;29;20152;-73
2023/06/24 10:57:25;;;;;;;3.10;2.40;;;32.20;68.50;;;;;;4833012;29;20052;-72
2023/06/24 10:59:53;;;;;;;5.30;4.80;;;32.50;68.60;;;;;;4825050;29;20060;-70
2023/06/24 11:02:22;;;;;;;4.88;4.40;;;32.80;68.80;;;;;;4816937;29;20052;-72
2023/06/24 11:04:52;;;;;;;9.90;8.90;;;33.20;66.80;;;;;;4831392;29;20037;-70
2023/06/24 11:07:21;;;;;;;3.13;2.72;;;33.30;66.20;;;;;;4814871;29;20509;-72
2023/06/24 11:09:52;;;;;;;3.40;2.58;;;33.60;66.40;;;;;;4831548;29;20040;-69
2023/06/24 11:12:19;;;;;;;3.22;2.60;;;33.90;66.40;;;;;;4841688;29;20048;-69
2023/06/24 11:14:45;;;;;;;2.83;2.38;;;34.20;66.20;;;;;;4838141;29;20044;-67
2023/06/24 11:17:12;;;;;;;3.00;2.10;;;34.50;66.00;;;;;;4828158;29;20041;-67
2023/06/24 11:19:39;;;;;;;3.45;3.00;;;34.80;65.30;;;;;;4823414;29;21282;-66
2023/06/24 11:22:08;;;;;;;3.70;2.30;;;35.10;64.20;;;;;;4830273;29;20930;-67
2023/06/24 11:24:35;;;;;;;4.15;3.15;;;35.20;63.40;;;;;;4830602;29;20037;-67
2023/06/24 11:27:04;;;;;;;3.75;2.50;;;35.40;62.00;;;;;;4836749;29;20029;-66
2023/06/24 11:29:32;;;;;;;3.95;2.95;;;35.60;61.60;;;;;;4833942;29;20060;-68
2023/06/24 11:31:58;;;;;;;3.42;3.00;;;35.80;61.60;;;;;;4842626;29;20044;-67
2023/06/24 11:34:25;;;;;;;4.78;4.00;;;36.00;61.40;;;;;;4833246;29;20048;-66
2023/06/24 11:36:51;;;;;;;5.13;2.58;;;36.20;59.40;;;;;;4833511;29;20950;-66
2023/06/24 11:39:25;;;;;;;4.43;3.50;;;36.30;59.40;;;;;;4829026;29;20041;-66
2023/06/24 11:41:52;;;;;;;3.50;3.20;;;36.50;59.30;;;;;;4836179;29;20036;-67
2023/06/24 11:44:24;;;;;;;3.05;2.50;;;36.60;58.40;;;;;;4836662;29;20040;-69
2023/06/24 11:46:50;;;;;;;2.78;2.47;;;36.70;58.60;;;;;;4846456;29;20057;-70
2023/06/24 11:49:18;;;;;;;3.13;2.00;;;37.10;58.80;;;;;;4838572;29;20037;-68
2023/06/24 11:51:49;;;;;;;4.50;2.35;;;37.50;58.90;;;;;;4834572;29;20052;-68
2023/06/24 11:54:19;;;;;;;5.45;2.88;;;37.80;57.60;;;;;;4834824;29;20037;-71
2023/06/24 11:56:51;;;;;;;7.70;5.20;;;38.00;57.00;;;;;;4821998;29;20259;-71
2023/06/24 11:59:20;;;;;;;6.38;3.15;;;38.20;55.90;;;;;;4826792;29;20041;-70
2023/06/24 12:01:57;;;;;;;2.85;2.55;;;38.40;56.20;;;;;;4819180;29;20044;-69
2023/06/24 12:04:31;;;;;;;3.20;2.50;;;38.70;55.30;;;;;;4844756;29;20540;-68
2023/06/24 12:06:58;;;;;;;2.70;1.90;;;38.80;53.10;;;;;;4846903;29;20037;-68
2023/06/24 12:09:24;;;;;;;2.80;2.00;;;38.80;54.10;;;;;;4834555;29;20393;-68
2023/06/24 12:11:51;;;;;;;2.58;1.73;;;39.10;54.00;;;;;;4833182;29;20527;-73
2023/06/24 12:14:18;;;;;;;2.70;2.08;;;39.40;54.20;;;;;;4835950;29;20040;-72
2023/06/24 12:16:44;;;;;;;3.35;2.03;;;39.70;52.70;;;;;;4833254;29;20049;-71
2023/06/24 12:19:11;;;;;;;4.47;4.05;;;39.90;51.50;;;;;;4828259;29;20044;-73
2023/06/24 12:21:37;;;;;;;3.72;2.10;;;39.90;50.60;;;;;;4838958;29;20036;-73
2023/06/24 12:24:04;;;;;;;6.75;3.80;;;39.90;51.30;;;;;;4846240;29;20036;-74
2023/06/24 12:26:32;;;;;;;2.97;2.15;;;40.00;50.00;;;;;;4840073;29;20045;-71
2023/06/24 12:28:58;;;;;;;2.60;1.92;;;39.90;49.50;;;;;;4810737;29;20497;-73
2023/06/24 12:31:24;;;;;;;4.10;3.78;;;40.00;50.40;;;;;;4827433;29;20053;-68
2023/06/24 12:33:51;;;;;;;2.78;1.77;;;40.10;49.40;;;;;;4834911;29;20034;-68
2023/06/24 12:36:19;;;;;;;2.50;2.17;;;40.30;50.00;;;;;;4831796;29;21799;-68
2023/06/24 12:38:45;;;;;;;3.90;2.22;;;40.50;49.70;;;;;;4814314;29;20132;-70
2023/06/24 12:41:11;;;;;;;5.75;2.97;;;40.70;49.70;;;;;;4838409;29;20037;-69
2023/06/24 12:43:38;;;;;;;2.95;2.13;;;41.00;49.00;;;;;;4844293;29;20029;-68
2023/06/24 12:46:04;;;;;;;3.60;1.48;;;41.10;48.70;;;;;;4821580;29;20048;-68
2023/06/24 12:48:30;;;;;;;3.38;1.73;;;41.30;49.20;;;;;;4829573;29;21436;-68
2023/06/24 12:50:57;;;;;;;3.78;1.85;;;41.60;48.90;;;;;;4824522;29;20044;-68